Time;durP1;ratioP1;P1;durP2;ratioP2;P2;SDS_P1;SDS_P2;PMS_P1;PMS_P2;Temp;Humidity;BMP_temperature;BMP_pressure;BME280_temperature;BME280_humidity;BME280_pressure;Samples;Min_cycle;Max_cycle;Signal;HPM_P1;HPM_P2
2021/12/02 00:01:00;;;;;;;0.28;0.28;;;7.00;99.90;;;;;;5051652;28;20103;-79
2021/12/02 00:03:26;;;;;;;0.00;0.00;;;7.00;99.90;;;;;;5052040;28;20037;-79
2021/12/02 00:05:52;;;;;;;0.10;0.10;;;6.90;99.90;;;;;;5033629;28;20025;-79
2021/12/02 00:08:18;;;;;;;0.70;0.70;;;6.80;99.90;;;;;;5051714;28;20075;-79
2021/12/02 00:10:44;;;;;;;0.00;0.00;;;6.80;99.90;;;;;;5052075;28;20098;-79
2021/12/02 00:13:11;;;;;;;0.00;0.00;;;6.80;99.90;;;;;;5052067;28;20021;-79
2021/12/02 00:16:22;;;;;;;5.47;1.65;;;6.70;99.90;;;;;;5051920;28;20036;-79
2021/12/02 00:21:04;;;;;;;0.00;0.00;;;6.70;99.90;;;;;;5051957;28;20021;-79
2021/12/02 00:23:35;;;;;;;1.02;0.65;;;6.70;99.90;;;;;;5052053;28;20025;-79
2021/12/02 00:26:03;;;;;;;0.00;0.00;;;6.70;99.90;;;;;;5051665;28;20094;-79
2021/12/02 00:28:31;;;;;;;0.15;0.15;;;6.70;99.90;;;;;;5051982;28;20017;-79
2021/12/02 00:31:00;;;;;;;0.20;0.20;;;6.70;99.90;;;;;;5051681;28;20491;-78
2021/12/02 00:33:28;;;;;;;0.00;0.00;;;6.60;99.90;;;;;;5031807;28;20436;-79
2021/12/02 00:35:54;;;;;;;0.00;0.00;;;6.60;99.90;;;;;;5032040;28;20021;-79
2021/12/02 00:38:22;;;;;;;0.00;0.00;;;6.60;99.90;;;;;;5031819;28;20021;-77
2021/12/02 00:40:49;;;;;;;0.00;0.00;;;6.60;99.90;;;;;;5032166;28;20101;-79
2021/12/02 00:43:16;;;;;;;0.20;0.20;;;6.50;99.90;;;;;;5031949;28;20023;-79
2021/12/02 00:45:44;;;;;;;0.90;0.65;;;6.50;99.90;;;;;;5030876;28;20395;-79
2021/12/02 00:48:11;;;;;;;0.00;0.00;;;6.50;99.90;;;;;;5031505;28;20052;-79
2021/12/02 00:50:40;;;;;;;0.00;0.00;;;6.40;99.90;;;;;;5031791;28;20548;-79
2021/12/02 00:53:10;;;;;;;0.17;0.13;;;6.40;99.90;;;;;;5030959;28;20105;-79
2021/12/02 00:55:41;;;;;;;0.80;0.80;;;6.40;99.90;;;;;;5031449;28;20030;-79
2021/12/02 00:58:09;;;;;;;1.55;1.13;;;6.30;99.90;;;;;;5040628;28;20040;-79
2021/12/02 01:00:34;;;;;;;1.45;1.00;;;6.30;99.90;;;;;;5054779;28;20519;-79
2021/12/02 01:03:02;;;;;;;2.92;0.70;;;6.30;99.90;;;;;;5054916;28;20048;-79
2021/12/02 01:05:29;;;;;;;0.00;0.00;;;6.30;99.90;;;;;;5054958;28;20377;-79
2021/12/02 01:07:58;;;;;;;0.00;0.00;;;6.20;99.90;;;;;;5054868;28;20078;-79
2021/12/02 01:10:24;;;;;;;0.00;0.00;;;6.20;99.90;;;;;;5054518;28;20063;-79
2021/12/02 01:12:50;;;;;;;0.00;0.00;;;6.20;99.90;;;;;;5054319;28;20049;-79
2021/12/02 01:15:16;;;;;;;0.00;0.00;;;6.20;99.90;;;;;;5054127;28;20484;-79
2021/12/02 01:17:43;;;;;;;0.35;0.35;;;6.20;99.90;;;;;;5054591;28;20052;-79
2021/12/02 01:20:09;;;;;;;0.00;0.00;;;6.20;99.90;;;;;;5054481;28;20020;-79
2021/12/02 01:22:38;;;;;;;0.00;0.00;;;6.10;99.90;;;;;;5054889;28;20128;-79
2021/12/02 01:25:08;;;;;;;0.00;0.00;;;6.10;99.90;;;;;;5054742;28;20033;-79
2021/12/02 01:27:35;;;;;;;0.00;0.00;;;6.00;99.90;;;;;;5054739;28;20056;-79
2021/12/02 01:30:03;;;;;;;0.85;0.38;;;6.00;99.90;;;;;;5054748;28;20024;-79
2021/12/02 01:32:33;;;;;;;0.00;0.00;;;6.10;99.90;;;;;;5041626;28;20461;-79
2021/12/02 01:35:03;;;;;;;0.00;0.00;;;6.10;99.90;;;;;;5034530;28;20496;-79
2021/12/02 01:37:29;;;;;;;0.30;0.30;;;6.10;99.90;;;;;;5034662;28;20033;-79
2021/12/02 01:39:56;;;;;;;0.00;0.00;;;6.10;99.90;;;;;;5035097;28;20017;-79
2021/12/02 01:42:27;;;;;;;0.00;0.00;;;6.10;99.90;;;;;;5034716;28;20076;-79
2021/12/02 01:44:58;;;;;;;0.50;0.50;;;6.10;99.90;;;;;;5034713;28;20049;-79
2021/12/02 01:47:27;;;;;;;0.32;0.32;;;6.10;99.90;;;;;;5034345;28;20029;-79
2021/12/02 01:50:00;;;;;;;3.70;0.50;;;6.10;99.90;;;;;;5034153;28;20100;-79
2021/12/02 01:52:30;;;;;;;0.00;0.00;;;6.20;99.90;;;;;;5034015;28;20033;-79
2021/12/02 01:55:05;;;;;;;0.00;0.00;;;6.20;99.90;;;;;;5033422;28;20075;-79
2021/12/02 01:57:35;;;;;;;0.00;0.00;;;6.10;99.90;;;;;;5036416;28;20056;-78
2021/12/02 02:00:15;;;;;;;0.95;0.95;;;6.10;99.90;;;;;;5053877;28;20081;-79
2021/12/02 02:02:41;;;;;;;0.00;0.00;;;6.10;99.90;;;;;;5054150;28;20476;-79
2021/12/02 02:05:13;;;;;;;0.15;0.08;;;6.00;99.90;;;;;;5053561;28;20032;-79
2021/12/02 02:07:53;;;;;;;0.00;0.00;;;6.00;99.90;;;;;;5052321;28;20055;-78
2021/12/02 02:10:19;;;;;;;0.00;0.00;;;6.00;99.90;;;;;;5053823;28;20035;-79
2021/12/02 02:12:45;;;;;;;0.00;0.00;;;5.90;99.90;;;;;;5053827;28;20029;-79
2021/12/02 02:15:11;;;;;;;1.00;1.00;;;5.80;99.90;;;;;;5052610;28;20446;-79
2021/12/02 02:17:47;;;;;;;0.28;0.28;;;5.80;99.90;;;;;;5053436;28;20115;-79
2021/12/02 02:20:14;;;;;;;0.00;0.00;;;5.80;99.90;;;;;;5053292;28;20024;-79
2021/12/02 02:22:40;;;;;;;0.00;0.00;;;5.70;99.90;;;;;;5053836;28;20027;-79
2021/12/02 02:25:12;;;;;;;1.02;1.02;;;5.70;99.90;;;;;;5052195;28;20108;-79
2021/12/02 02:27:38;;;;;;;0.17;0.17;;;5.70;99.90;;;;;;5053594;28;20033;-79
2021/12/02 02:30:05;;;;;;;0.40;0.40;;;5.70;99.90;;;;;;5053628;28;20025;-79
2021/12/02 02:32:33;;;;;;;0.00;0.00;;;5.70;99.90;;;;;;5040156;28;20044;-79
2021/12/02 02:34:59;;;;;;;0.00;0.00;;;5.70;99.90;;;;;;5032821;28;20480;-78
2021/12/02 02:37:29;;;;;;;2.92;0.65;;;5.60;99.90;;;;;;5033424;28;20075;-79
2021/12/02 02:39:54;;;;;;;0.00;0.00;;;5.70;99.90;;;;;;5033914;28;20104;-79
2021/12/02 02:42:23;;;;;;;0.70;0.70;;;5.70;99.90;;;;;;5033305;28;20148;-79
2021/12/02 02:44:50;;;;;;;0.25;0.25;;;5.60;99.90;;;;;;5033457;28;20029;-79
2021/12/02 02:47:16;;;;;;;0.00;0.00;;;5.60;99.90;;;;;;5033209;28;20095;-79
2021/12/02 02:49:42;;;;;;;0.00;0.00;;;5.60;99.90;;;;;;5032923;28;20448;-79
2021/12/02 02:52:08;;;;;;;1.48;1.23;;;5.60;99.90;;;;;;5032801;28;20100;-79
2021/12/02 02:54:34;;;;;;;0.00;0.00;;;5.60;99.90;;;;;;5032401;28;20392;-79
2021/12/02 02:57:04;;;;;;;12.98;0.55;;;5.60;99.90;;;;;;5033066;28;20020;-79
2021/12/02 03:00:23;;;;;;;0.00;0.00;;;5.60;99.90;;;;;;5051580;28;20100;-79
2021/12/02 03:05:43;;;;;;;0.25;0.25;;;5.50;99.90;;;;;;5052751;28;20037;-79
2021/12/02 03:07:51;;;;;;;0.55;0.55;;;5.50;99.90;;;;;;5049520;28;20091;-78
2021/12/02 03:10:28;;;;;;;0.00;0.00;;;5.40;99.90;;;;;;5051879;28;20057;-79
2021/12/02 03:12:58;;;;;;;0.43;0.25;;;5.40;99.90;;;;;;5052771;28;20104;-79
2021/12/02 03:17:50;;;;;;;0.00;0.00;;;5.30;99.90;;;;;;5052409;28;20108;-79
2021/12/02 03:20:15;;;;;;;0.00;0.00;;;5.30;99.90;;;;;;5051680;28;20472;-79
2021/12/02 03:22:43;;;;;;;0.00;0.00;;;5.20;99.90;;;;;;5052873;28;20067;-79
2021/12/02 03:25:09;;;;;;;0.00;0.00;;;5.10;99.90;;;;;;5052484;28;20480;-79
2021/12/02 03:27:35;;;;;;;0.00;0.00;;;5.20;99.90;;;;;;5051321;28;20111;-79
2021/12/02 03:30:02;;;;;;;0.00;0.00;;;5.10;99.90;;;;;;5052780;28;20108;-79
2021/12/02 03:32:28;;;;;;;0.80;0.50;;;5.10;99.90;;;;;;5052183;28;20507;-79
2021/12/02 03:34:54;;;;;;;0.00;0.00;;;5.10;99.90;;;;;;5052452;28;20021;-79
2021/12/02 03:37:19;;;;;;;2.00;0.93;;;5.10;99.90;;;;;;5051200;28;20033;-79
2021/12/02 03:39:46;;;;;;;0.00;0.00;;;5.10;99.90;;;;;;5052911;28;20040;-79
2021/12/02 03:42:12;;;;;;;0.00;0.00;;;5.10;99.90;;;;;;5052726;28;20450;-79
2021/12/02 03:44:38;;;;;;;0.32;0.32;;;5.10;99.90;;;;;;5051097;28;20040;-79
2021/12/02 03:47:04;;;;;;;0.00;0.00;;;5.00;99.90;;;;;;5052235;28;20032;-78
2021/12/02 03:49:30;;;;;;;0.10;0.10;;;5.00;99.90;;;;;;5052132;28;20025;-79
2021/12/02 03:51:56;;;;;;;0.55;0.55;;;5.00;99.90;;;;;;5052141;28;20395;-79
2021/12/02 03:54:21;;;;;;;0.00;0.00;;;5.00;99.90;;;;;;5050820;28;20070;-79
2021/12/02 03:56:47;;;;;;;0.35;0.35;;;5.00;99.90;;;;;;5051265;28;20021;-79
2021/12/02 03:59:13;;;;;;;0.00;0.00;;;5.00;99.90;;;;;;5052114;28;20037;-79
2021/12/02 04:01:39;;;;;;;0.00;0.00;;;5.00;99.90;;;;;;5049596;28;20415;-79
2021/12/02 04:04:05;;;;;;;0.00;0.00;;;5.00;99.90;;;;;;5051851;28;20036;-79
2021/12/02 04:06:31;;;;;;;0.10;0.10;;;4.90;99.90;;;;;;5052075;28;20025;-79
2021/12/02 04:09:05;;;;;;;0.00;0.00;;;4.90;99.90;;;;;;5052051;28;20033;-79
2021/12/02 04:11:35;;;;;;;0.00;0.00;;;4.90;99.90;;;;;;5051023;28;20051;-79
2021/12/02 04:14:13;;;;;;;0.00;0.00;;;4.90;99.90;;;;;;5052136;28;20499;-79
2021/12/02 04:16:40;;;;;;;0.00;0.00;;;4.90;99.90;;;;;;5051937;28;20071;-79
2021/12/02 04:19:09;;;;;;;0.00;0.00;;;4.90;99.90;;;;;;5051685;28;20021;-79
2021/12/02 04:21:35;;;;;;;0.00;0.00;;;4.90;99.90;;;;;;5052079;28;20025;-79
2021/12/02 04:24:01;;;;;;;0.00;0.00;;;4.90;99.90;;;;;;5050768;28;20443;-79
2021/12/02 04:26:27;;;;;;;0.00;0.00;;;4.90;99.90;;;;;;5052086;28;20053;-79
2021/12/02 04:28:52;;;;;;;0.00;0.00;;;4.90;99.90;;;;;;5051706;28;20086;-79
2021/12/02 04:31:18;;;;;;;1.75;1.00;;;4.90;99.90;;;;;;5049421;28;20029;-79
2021/12/02 04:33:44;;;;;;;0.00;0.00;;;4.80;99.90;;;;;;5035683;28;20022;-79
2021/12/02 04:36:10;;;;;;;0.00;0.00;;;4.80;99.90;;;;;;5035705;28;20026;-79
2021/12/02 04:38:35;;;;;;;0.00;0.00;;;4.80;99.90;;;;;;5035962;28;20116;-79
2021/12/02 04:41:01;;;;;;;0.00;0.00;;;4.80;99.90;;;;;;5035302;28;20030;-79
2021/12/02 04:43:27;;;;;;;0.15;0.15;;;4.70;99.90;;;;;;5034156;28;20033;-79
2021/12/02 04:45:53;;;;;;;1.25;1.02;;;4.70;99.90;;;;;;5035562;28;20032;-79
2021/12/02 04:48:19;;;;;;;0.00;0.00;;;4.70;99.90;;;;;;5035192;28;20030;-79
2021/12/02 04:50:47;;;;;;;0.20;0.20;;;4.70;99.90;;;;;;5035554;28;20076;-79
2021/12/02 04:53:13;;;;;;;0.30;0.30;;;4.70;99.90;;;;;;5035248;28;20033;-79
2021/12/02 04:55:40;;;;;;;0.00;0.00;;;4.70;99.90;;;;;;5034970;28;20392;-79
2021/12/02 04:58:06;;;;;;;0.38;0.30;;;4.60;99.90;;;;;;5041510;28;20032;-78
2021/12/02 05:00:32;;;;;;;0.00;0.00;;;4.60;99.90;;;;;;5054822;28;20025;-79
2021/12/02 05:02:58;;;;;;;0.20;0.20;;;4.60;99.90;;;;;;5053638;28;20037;-78
2021/12/02 05:05:24;;;;;;;0.73;0.73;;;4.60;99.90;;;;;;5055035;28;20053;-79
2021/12/02 05:07:53;;;;;;;0.00;0.00;;;4.60;99.90;;;;;;5053663;28;20566;-79
2021/12/02 05:10:19;;;;;;;0.05;0.05;;;4.50;99.90;;;;;;5053642;28;20024;-79
2021/12/02 05:12:45;;;;;;;0.00;0.00;;;4.60;99.90;;;;;;5054969;28;20120;-79
2021/12/02 05:15:11;;;;;;;5.63;0.40;;;4.60;99.90;;;;;;5054902;28;20096;-79
2021/12/02 05:17:36;;;;;;;0.47;0.47;;;4.60;99.90;;;;;;5054693;28;20224;-79
2021/12/02 05:20:04;;;;;;;0.00;0.00;;;4.60;99.90;;;;;;5053323;28;20021;-79
2021/12/02 05:22:30;;;;;;;0.10;0.10;;;4.70;99.90;;;;;;5053671;28;20115;-79
2021/12/02 05:24:55;;;;;;;1.23;1.05;;;4.70;99.90;;;;;;5055024;28;20101;-80
2021/12/02 05:27:21;;;;;;;0.00;0.00;;;4.70;99.90;;;;;;5054478;28;20507;-79
2021/12/02 05:29:47;;;;;;;0.00;0.00;;;4.70;99.90;;;;;;5053389;28;20108;-79
2021/12/02 05:32:12;;;;;;;1.48;0.60;;;4.70;99.90;;;;;;5043967;28;20407;-79
2021/12/02 05:34:38;;;;;;;0.00;0.00;;;4.70;99.90;;;;;;5034272;28;20022;-79
2021/12/02 05:37:04;;;;;;;0.00;0.00;;;4.80;99.90;;;;;;5034714;28;20033;-79
2021/12/02 05:39:30;;;;;;;0.00;0.00;;;4.80;99.90;;;;;;5035090;28;20018;-79
2021/12/02 05:41:56;;;;;;;0.00;0.00;;;4.80;99.90;;;;;;5034716;28;20508;-79
2021/12/02 05:44:22;;;;;;;0.00;0.00;;;4.80;99.90;;;;;;5033638;28;20059;-79
2021/12/02 05:46:47;;;;;;;24.20;0.60;;;4.70;99.90;;;;;;5034590;28;20037;-79
2021/12/02 05:49:13;;;;;;;0.00;0.00;;;4.70;99.90;;;;;;5032606;28;20025;-79
2021/12/02 05:51:41;;;;;;;0.00;0.00;;;4.70;99.90;;;;;;5034130;28;20107;-78
2021/12/02 05:54:08;;;;;;;0.00;0.00;;;4.70;99.90;;;;;;5034504;28;20473;-79
2021/12/02 05:56:33;;;;;;;0.00;0.00;;;4.60;99.90;;;;;;5033702;28;20468;-79
2021/12/02 05:58:59;;;;;;;0.00;0.00;;;4.60;99.90;;;;;;5040100;28;20053;-79
2021/12/02 06:01:26;;;;;;;0.00;0.00;;;4.60;99.90;;;;;;5052545;28;20040;-79
2021/12/02 06:03:52;;;;;;;0.00;0.00;;;4.50;99.90;;;;;;5053761;28;20396;-79
2021/12/02 06:06:18;;;;;;;0.00;0.00;;;4.50;99.90;;;;;;5053843;28;20025;-82
2021/12/02 06:08:44;;;;;;;0.10;0.10;;;4.50;99.90;;;;;;5053691;28;20075;-79
2021/12/02 06:11:10;;;;;;;0.00;0.00;;;4.60;99.90;;;;;;5053699;28;20430;-79
2021/12/02 06:13:37;;;;;;;0.00;0.00;;;4.60;99.90;;;;;;5053520;28;20067;-79
2021/12/02 06:16:02;;;;;;;0.05;0.05;;;4.70;99.90;;;;;;5053742;28;20021;-78
2021/12/02 06:18:28;;;;;;;27.10;1.08;;;4.70;99.90;;;;;;5053119;28;20028;-79
2021/12/02 06:20:54;;;;;;;0.00;0.00;;;4.80;99.90;;;;;;5053925;28;20123;-79
2021/12/02 06:23:23;;;;;;;0.00;0.00;;;4.80;99.90;;;;;;5052423;28;20040;-79
2021/12/02 06:25:49;;;;;;;0.00;0.00;;;4.80;99.90;;;;;;5053531;28;20103;-79
2021/12/02 06:28:18;;;;;;;0.00;0.00;;;4.80;99.90;;;;;;5053442;28;20025;-83
2021/12/02 06:30:45;;;;;;;0.00;0.00;;;4.70;99.90;;;;;;5053664;28;20484;-79
2021/12/02 06:33:11;;;;;;;0.10;0.10;;;4.70;99.90;;;;;;5034192;28;20025;-78
2021/12/02 06:35:38;;;;;;;0.00;0.00;;;4.60;99.90;;;;;;5039301;28;20029;-78
2021/12/02 06:38:04;;;;;;;0.43;0.43;;;4.50;99.90;;;;;;5053004;28;20056;-81
2021/12/02 06:40:31;;;;;;;0.00;0.00;;;4.60;99.90;;;;;;5051235;28;20029;-81
2021/12/02 06:42:57;;;;;;;0.80;0.68;;;4.60;99.90;;;;;;5053520;28;20064;-81
2021/12/02 06:45:23;;;;;;;0.35;0.35;;;4.50;99.90;;;;;;5052783;28;20426;-81
2021/12/02 06:47:50;;;;;;;5.18;0.75;;;4.50;99.90;;;;;;5052770;28;20696;-81
2021/12/02 06:50:19;;;;;;;0.00;0.00;;;4.50;99.90;;;;;;5052315;28;20021;-81
2021/12/02 06:52:49;;;;;;;0.00;0.00;;;4.50;99.90;;;;;;5052802;28;20053;-81
2021/12/02 06:55:15;;;;;;;0.25;0.10;;;4.50;99.90;;;;;;5051816;28;20032;-81
2021/12/02 06:57:41;;;;;;;0.00;0.00;;;4.50;99.90;;;;;;5051612;28;20025;-82
2021/12/02 07:00:11;;;;;;;0.10;0.10;;;4.50;99.90;;;;;;5052088;28;20147;-81
2021/12/02 07:02:37;;;;;;;0.10;0.10;;;4.50;99.90;;;;;;5051751;28;20047;-80
2021/12/02 07:05:07;;;;;;;0.10;0.10;;;4.50;99.90;;;;;;5050268;28;20484;-81
2021/12/02 07:07:36;;;;;;;1.30;0.70;;;4.40;99.90;;;;;;5049169;28;20025;-80
2021/12/02 07:10:23;;;;;;;0.00;0.00;;;4.40;99.90;;;;;;5047529;28;20021;-80
2021/12/02 07:12:53;;;;;;;2.55;0.32;;;4.40;99.90;;;;;;5049327;28;20032;-80
2021/12/02 07:15:53;;;;;;;3.00;1.35;;;4.30;99.90;;;;;;5051284;28;20025;-80
2021/12/02 07:18:15;;;;;;;1.67;1.35;;;4.30;99.90;;;;;;5050858;28;20069;-81
2021/12/02 07:20:42;;;;;;;0.63;0.63;;;4.30;99.90;;;;;;5050444;28;20029;-80
2021/12/02 07:23:09;;;;;;;0.00;0.00;;;4.20;99.90;;;;;;5049433;28;20120;-80
2021/12/02 07:25:35;;;;;;;1.27;1.17;;;4.20;99.90;;;;;;5048814;28;20041;-81
2021/12/02 07:28:01;;;;;;;0.85;0.32;;;4.20;99.90;;;;;;5051648;28;20966;-81
2021/12/02 07:30:27;;;;;;;0.00;0.00;;;4.20;99.90;;;;;;5051041;28;20040;-79
2021/12/02 07:32:55;;;;;;;0.00;0.00;;;4.20;99.90;;;;;;5054424;28;20368;-80
2021/12/02 07:35:22;;;;;;;0.00;0.00;;;4.20;99.90;;;;;;5055442;28;20021;-80
2021/12/02 07:37:50;;;;;;;0.00;0.00;;;4.20;99.90;;;;;;5055852;28;20078;-81
2021/12/02 07:40:18;;;;;;;4.05;1.05;;;4.30;99.90;;;;;;5063559;28;20024;-80
2021/12/02 07:42:45;;;;;;;3.47;2.13;;;4.30;99.90;;;;;;5045456;28;20025;-80
2021/12/02 07:45:12;;;;;;;0.00;0.00;;;4.30;99.90;;;;;;5056262;28;20029;-80
2021/12/02 07:47:40;;;;;;;0.03;0.00;;;4.40;99.90;;;;;;5058634;28;20040;-80
2021/12/02 07:50:07;;;;;;;0.22;0.22;;;4.40;99.90;;;;;;5042758;28;20083;-78
2021/12/02 07:52:34;;;;;;;0.68;0.63;;;4.40;99.90;;;;;;5053573;28;20037;-78
2021/12/02 07:55:03;;;;;;;0.00;0.00;;;4.30;99.90;;;;;;5051254;28;20523;-79
2021/12/02 07:57:31;;;;;;;3.92;0.90;;;4.40;99.90;;;;;;5049073;28;20028;-79
2021/12/02 07:59:57;;;;;;;0.00;0.00;;;4.40;99.90;;;;;;5042036;28;20017;-78
2021/12/02 08:02:24;;;;;;;0.00;0.00;;;4.40;99.90;;;;;;5046867;28;20043;-79
2021/12/02 08:04:49;;;;;;;0.00;0.00;;;4.40;99.90;;;;;;5046607;28;20495;-79
2021/12/02 08:07:15;;;;;;;0.00;0.00;;;4.50;99.90;;;;;;5059543;28;20042;-78
2021/12/02 08:09:41;;;;;;;0.43;0.25;;;4.50;99.90;;;;;;5064409;28;20043;-78
2021/12/02 08:12:07;;;;;;;0.00;0.00;;;4.50;99.90;;;;;;5057909;28;20460;-79
2021/12/02 08:14:33;;;;;;;0.20;0.10;;;4.50;99.90;;;;;;5055349;28;20468;-79
2021/12/02 08:16:59;;;;;;;0.00;0.00;;;4.50;99.90;;;;;;5068860;28;20017;-79
2021/12/02 08:19:24;;;;;;;0.00;0.00;;;4.50;99.90;;;;;;5051909;28;20524;-79
2021/12/02 08:21:51;;;;;;;0.10;0.10;;;4.50;99.90;;;;;;5052883;28;20025;-79
2021/12/02 08:24:21;;;;;;;0.00;0.00;;;4.60;99.90;;;;;;5069737;28;20029;-79
2021/12/02 08:26:47;;;;;;;0.00;0.00;;;4.60;99.90;;;;;;5053107;28;20041;-78
2021/12/02 08:29:13;;;;;;;0.00;0.00;;;4.60;99.90;;;;;;5053899;28;20032;-78
2021/12/02 08:31:38;;;;;;;0.10;0.10;;;4.70;99.90;;;;;;5058849;28;20047;-78
2021/12/02 08:34:04;;;;;;;1.75;0.32;;;4.80;99.90;;;;;;5055226;28;20033;-80
2021/12/02 08:36:41;;;;;;;1.75;0.47;;;4.90;99.90;;;;;;5053387;28;20029;-79
2021/12/02 08:39:08;;;;;;;0.60;0.60;;;4.90;99.90;;;;;;5060613;28;20018;-79
2021/12/02 08:41:33;;;;;;;0.00;0.00;;;5.00;99.90;;;;;;5054082;28;20021;-79
2021/12/02 08:43:59;;;;;;;0.55;0.55;;;5.00;99.90;;;;;;5067609;28;20070;-78
2021/12/02 08:46:26;;;;;;;1.35;1.02;;;5.10;99.90;;;;;;5065539;28;20043;-78
2021/12/02 08:48:53;;;;;;;0.00;0.00;;;5.10;99.90;;;;;;5067994;28;20013;-79
2021/12/02 08:51:19;;;;;;;1.65;0.80;;;5.20;99.90;;;;;;5058335;28;20028;-78
2021/12/02 08:53:45;;;;;;;0.13;0.13;;;5.20;99.90;;;;;;5055868;28;20472;-78
2021/12/02 08:56:11;;;;;;;1.25;1.15;;;5.20;99.90;;;;;;5055643;28;20032;-78
2021/12/02 08:58:38;;;;;;;0.00;0.00;;;5.30;99.90;;;;;;5055168;28;20652;-78
2021/12/02 09:01:04;;;;;;;0.90;0.77;;;5.30;99.90;;;;;;5055624;28;20031;-79
2021/12/02 09:03:29;;;;;;;0.03;0.03;;;5.40;99.90;;;;;;5065159;28;20047;-79
2021/12/02 09:05:55;;;;;;;0.17;0.17;;;5.40;99.90;;;;;;5059762;28;20028;-79
2021/12/02 09:08:24;;;;;;;0.00;0.00;;;5.50;99.90;;;;;;5058451;28;20039;-79
2021/12/02 09:10:49;;;;;;;0.43;0.40;;;5.50;99.90;;;;;;5068339;28;20024;-78
2021/12/02 09:13:16;;;;;;;0.60;0.25;;;5.60;99.90;;;;;;5054072;28;20396;-79
2021/12/02 09:15:42;;;;;;;0.00;0.00;;;5.60;99.90;;;;;;5053778;28;20020;-78
2021/12/02 09:18:09;;;;;;;0.00;0.00;;;5.60;99.90;;;;;;5045936;28;20081;-78
2021/12/02 09:20:35;;;;;;;0.52;0.52;;;5.70;99.90;;;;;;5052968;28;20044;-78
2021/12/02 09:23:01;;;;;;;0.00;0.00;;;5.70;99.90;;;;;;5052907;28;20029;-78
2021/12/02 09:25:27;;;;;;;0.00;0.00;;;5.80;99.90;;;;;;5054458;28;20044;-78
2021/12/02 09:27:53;;;;;;;1.35;1.17;;;5.90;99.90;;;;;;5052425;28;20495;-78
2021/12/02 09:30:19;;;;;;;0.00;0.00;;;5.90;99.90;;;;;;5065363;28;20021;-78
2021/12/02 09:32:45;;;;;;;0.00;0.00;;;6.00;99.90;;;;;;5060444;28;20060;-77
2021/12/02 09:35:13;;;;;;;0.00;0.00;;;6.00;99.90;;;;;;5051796;28;20028;-78
2021/12/02 09:37:39;;;;;;;0.00;0.00;;;6.10;99.90;;;;;;5054239;28;20025;-78
2021/12/02 09:40:07;;;;;;;0.20;0.20;;;6.10;99.90;;;;;;5054608;28;20017;-78
2021/12/02 09:42:33;;;;;;;0.00;0.00;;;6.10;99.90;;;;;;5052553;28;20025;-78
2021/12/02 09:45:00;;;;;;;0.00;0.00;;;6.20;99.90;;;;;;5054255;28;20036;-78
2021/12/02 09:47:32;;;;;;;0.28;0.28;;;6.30;99.90;;;;;;5053344;28;20045;-78
2021/12/02 09:50:05;;;;;;;0.35;0.35;;;6.40;99.90;;;;;;5054510;28;20108;-78
2021/12/02 09:52:37;;;;;;;0.00;0.00;;;6.40;99.90;;;;;;5057876;28;20071;-78
2021/12/02 09:55:09;;;;;;;0.00;0.00;;;6.50;99.90;;;;;;5055920;28;20059;-78
2021/12/02 09:57:42;;;;;;;0.00;0.00;;;6.50;99.90;;;;;;5058276;28;20939;-76
2021/12/02 10:00:16;;;;;;;0.08;0.08;;;6.60;99.90;;;;;;5061110;28;20367;-76
2021/12/02 10:02:50;;;;;;;0.00;0.00;;;6.60;99.90;;;;;;5050081;28;20020;-76
2021/12/02 10:05:37;;;;;;;0.08;0.08;;;6.70;99.90;;;;;;5049770;28;20016;-76
2021/12/02 10:08:06;;;;;;;1.98;1.85;;;6.80;99.90;;;;;;5056243;28;20079;-76
2021/12/02 10:10:38;;;;;;;0.00;0.00;;;6.80;99.90;;;;;;5052221;28;20033;-76
2021/12/02 10:13:07;;;;;;;2.95;0.98;;;6.90;99.90;;;;;;5052227;28;20039;-76
2021/12/02 10:15:35;;;;;;;0.00;0.00;;;6.90;99.90;;;;;;5060938;28;20028;-76
2021/12/02 10:18:12;;;;;;;0.00;0.00;;;7.00;99.90;;;;;;5050696;28;20017;-76
2021/12/02 10:20:44;;;;;;;0.00;0.00;;;7.00;99.90;;;;;;5051844;28;20028;-76
2021/12/02 10:23:32;;;;;;;0.00;0.00;;;7.00;99.90;;;;;;5050981;28;20028;-76
2021/12/02 10:26:02;;;;;;;0.00;0.00;;;7.10;99.90;;;;;;5050074;28;20057;-76
2021/12/02 10:28:33;;;;;;;0.03;0.03;;;7.20;99.90;;;;;;5054025;28;20021;-76
2021/12/02 10:31:03;;;;;;;1.40;1.10;;;7.20;99.90;;;;;;5049884;28;20028;-76
2021/12/02 10:33:41;;;;;;;0.00;0.00;;;7.30;99.90;;;;;;5044469;28;20148;-76
2021/12/02 10:36:33;;;;;;;0.10;0.10;;;7.40;99.90;;;;;;5046278;28;20049;-78
2021/12/02 10:39:13;;;;;;;0.00;0.00;;;7.40;99.90;;;;;;5042542;28;20020;-75
2021/12/02 10:41:44;;;;;;;0.22;0.22;;;7.50;99.90;;;;;;5058998;28;20029;-76
2021/12/02 10:44:17;;;;;;;0.00;0.00;;;7.60;99.90;;;;;;5058624;28;20056;-75
2021/12/02 10:46:54;;;;;;;;;;;7.70;99.90;;;;;;5038475;28;20048;-76
2021/12/02 10:49:21;;;;;;;0.52;0.52;;;7.80;99.90;;;;;;5049418;28;19912;-76
2021/12/02 10:51:52;;;;;;;0.00;0.00;;;7.80;99.90;;;;;;5051807;28;20025;-76
2021/12/02 10:54:31;;;;;;;0.00;0.00;;;7.90;99.90;;;;;;5058639;28;20188;-76
2021/12/02 10:57:07;;;;;;;0.00;0.00;;;8.00;99.90;;;;;;5064161;28;20017;-76
2021/12/02 10:59:44;;;;;;;0.00;0.00;;;8.00;99.90;;;;;;5058823;28;20528;-76
2021/12/02 11:02:30;;;;;;;0.10;0.08;;;8.10;99.90;;;;;;5058830;28;20089;-76
2021/12/02 11:05:36;;;;;;;0.00;0.00;;;8.30;99.90;;;;;;5048006;28;20103;-76
2021/12/02 11:08:07;;;;;;;0.00;0.00;;;8.40;99.90;;;;;;5049860;28;20060;-77
2021/12/02 11:10:33;;;;;;;0.65;0.65;;;8.70;99.90;;;;;;5052212;28;20415;-77
2021/12/02 11:12:59;;;;;;;0.00;0.00;;;9.10;99.90;;;;;;5049513;28;20071;-77
2021/12/02 11:15:27;;;;;;;2.38;1.35;;;9.30;99.90;;;;;;5056986;28;20459;-78
2021/12/02 11:18:02;;;;;;;0.15;0.15;;;9.30;99.90;;;;;;5049600;28;20017;-78
2021/12/02 11:20:29;;;;;;;0.00;0.00;;;9.30;99.90;;;;;;5059878;28;20080;-78
2021/12/02 11:23:01;;;;;;;5.18;1.55;;;9.10;99.90;;;;;;5059593;28;20029;-78
2021/12/02 11:25:27;;;;;;;0.90;0.30;;;8.90;99.90;;;;;;5051366;28;20049;-78
2021/12/02 11:27:55;;;;;;;8.40;1.50;;;8.80;99.90;;;;;;5057375;28;20037;-78
2021/12/02 11:30:30;;;;;;;0.20;0.20;;;8.70;99.90;;;;;;5049653;28;20140;-78
2021/12/02 11:32:59;;;;;;;0.00;0.00;;;8.60;99.90;;;;;;5051109;28;20459;-78
2021/12/02 11:35:31;;;;;;;0.90;0.43;;;8.70;99.90;;;;;;5039050;28;20029;-79
2021/12/02 11:38:21;;;;;;;0.60;0.60;;;8.80;99.90;;;;;;5049763;28;20388;-78
2021/12/02 11:41:01;;;;;;;0.40;0.20;;;9.00;99.90;;;;;;5043737;28;20066;-78
2021/12/02 11:43:33;;;;;;;0.20;0.10;;;9.20;99.90;;;;;;5040347;28;20033;-78
2021/12/02 11:46:00;;;;;;;0.00;0.00;;;9.30;99.90;;;;;;5050871;28;20033;-78
2021/12/02 11:48:32;;;;;;;0.30;0.30;;;9.50;99.90;;;;;;5050757;28;20507;-78
2021/12/02 11:51:01;;;;;;;0.00;0.00;;;9.50;99.90;;;;;;5058452;28;20032;-78
2021/12/02 11:53:27;;;;;;;0.25;0.25;;;9.80;99.90;;;;;;5059554;28;20120;-78
2021/12/02 11:55:59;;;;;;;0.00;0.00;;;9.90;99.90;;;;;;5064323;28;20028;-77
2021/12/02 11:58:26;;;;;;;0.00;0.00;;;10.00;99.90;;;;;;5053144;28;20415;-77
2021/12/02 12:00:52;;;;;;;0.88;0.20;;;9.90;99.90;;;;;;5063945;28;20017;-78
2021/12/02 12:03:22;;;;;;;0.00;0.00;;;9.80;99.90;;;;;;5056461;28;20043;-78
2021/12/02 12:06:30;;;;;;;0.00;0.00;;;9.80;99.90;;;;;;5056259;28;20099;-76
2021/12/02 12:08:59;;;;;;;0.10;0.10;;;9.60;99.90;;;;;;5040784;28;20047;-76
2021/12/02 12:11:26;;;;;;;0.00;0.00;;;9.40;99.90;;;;;;5059647;28;20021;-75
2021/12/02 12:13:57;;;;;;;0.20;0.20;;;9.50;99.90;;;;;;5048436;28;20049;-76
2021/12/02 12:16:26;;;;;;;0.00;0.00;;;9.40;99.90;;;;;;5061696;28;20093;-76
2021/12/02 12:18:53;;;;;;;0.00;0.00;;;9.30;99.90;;;;;;5049239;28;20590;-79
2021/12/02 12:21:38;;;;;;;0.00;0.00;;;9.20;99.90;;;;;;5043485;28;20507;-77
2021/12/02 12:24:05;;;;;;;0.00;0.00;;;8.90;99.90;;;;;;5050552;28;20438;-77
2021/12/02 12:26:37;;;;;;;0.95;0.55;;;8.80;99.90;;;;;;5048751;28;20151;-77
2021/12/02 12:29:09;;;;;;;0.00;0.00;;;8.80;99.90;;;;;;5036981;28;20025;-78
2021/12/02 12:32:02;;;;;;;0.00;0.00;;;8.90;99.90;;;;;;5053002;28;20104;-78
2021/12/02 12:34:47;;;;;;;0.00;0.00;;;8.90;99.90;;;;;;5050531;28;20056;-78
2021/12/02 12:37:14;;;;;;;0.00;0.00;;;8.70;99.90;;;;;;5056188;28;20043;-78
2021/12/02 12:39:39;;;;;;;0.00;0.00;;;8.70;99.90;;;;;;5052214;28;20135;-78
2021/12/02 12:42:17;;;;;;;0.00;0.00;;;9.00;99.90;;;;;;5048939;28;20045;-76
2021/12/02 12:44:51;;;;;;;0.00;0.00;;;9.30;99.90;;;;;;5038080;28;20070;-76
2021/12/02 12:47:20;;;;;;;0.52;0.35;;;9.60;99.90;;;;;;5056915;28;20028;-75
2021/12/02 12:49:46;;;;;;;0.10;0.10;;;9.70;99.90;;;;;;5054291;28;20017;-75
2021/12/02 12:52:19;;;;;;;1.00;0.45;;;9.70;99.90;;;;;;5048511;28;20440;-76
2021/12/02 12:55:03;;;;;;;;;;;9.80;99.90;;;;;;5051014;28;20039;-76
2021/12/02 12:57:29;;;;;;;0.10;0.10;;;9.70;99.90;;;;;;5062838;28;19905;-76
2021/12/02 12:59:55;;;;;;;0.00;0.00;;;9.50;99.90;;;;;;5065798;28;20025;-75
2021/12/02 13:02:21;;;;;;;4.30;1.45;;;9.60;99.90;;;;;;5067380;28;20029;-75
2021/12/02 13:04:54;;;;;;;0.00;0.00;;;9.60;99.90;;;;;;5051803;28;20170;-75
2021/12/02 13:07:21;;;;;;;0.00;0.00;;;9.50;99.90;;;;;;5048305;28;20040;-76
2021/12/02 13:10:09;;;;;;;0.70;0.70;;;9.60;99.90;;;;;;5061808;28;20491;-75
2021/12/02 13:12:57;;;;;;;0.00;0.00;;;9.70;99.90;;;;;;5050077;28;20026;-76
2021/12/02 13:15:26;;;;;;;0.00;0.00;;;9.60;99.90;;;;;;5063255;28;20103;-76